This is the latest recevied weather packets stored in our database for station/object KO4DYK. If no packets are shown the sender has not sent any weather packets the latest 10 day(s).
| Time | Temp. | Humidity | Pressure | Rain* | Wind** | Luminosity | Snow |
|---|---|---|---|---|---|---|---|
| 1788031255 | 36.11° C | 39% | 1019.6 hPa | 0 mm | - | 697 W/m² | - |
| 1788030955 | 35° C | 40% | 1019.8 hPa | 0 mm | - | 655 W/m² | - |
| 1788030655 | 35° C | 42% | 1019.6 hPa | 0 mm | - | 672 W/m² | - |
| 1788030349 | 35.56° C | 42% | 1019.7 hPa | 0 mm | - | 662 W/m² | - |
| 1788030045 | 35° C | 42% | 1019.8 hPa | 0 mm | - | 697 W/m² | - |
| 1788029739 | 35.56° C | 41% | 1019.7 hPa | 0 mm | - | 678 W/m² | - |
| 1788029435 | 35.56° C | 42% | 1020 hPa | 0 mm | - | 697 W/m² | - |
| 1788029133 | 35° C | 40% | 1020 hPa | 0 mm | - | 695 W/m² | - |
| 1788028828 | 34.44° C | 42% | 1020.2 hPa | 0 mm | - | 724 W/m² | - |
| 1788028528 | 34.44° C | 44% | 1020.1 hPa | 0 mm | - | 671 W/m² | - |
| 1788028224 | 33.89° C | 44% | 1020 hPa | 0 mm | - | 649 W/m² | - |
| 1788027928 | 34.44° C | 42% | 1020.2 hPa | 0 mm | - | 634 W/m² | - |
| 1788027620 | 34.44° C | 44% | 1020 hPa | 0 mm | - | 639 W/m² | - |
| 1788027328 | 33.89° C | 43% | 1020.5 hPa | 0 mm | - | 696 W/m² | - |
| 1788027014 | 32.78° C | 46% | 1020.2 hPa | 0 mm | - | 714 W/m² | - |
| 1788026708 | 33.89° C | 45% | 1020.2 hPa | 0 mm | - | 123 W/m² | - |
| 1788026404 | 35° C | 42% | 1020.5 hPa | 0 mm | - | 736 W/m² | - |
| 1788026114 | 35° C | 43% | 1020.4 hPa | 0 mm | - | 696 W/m² | - |
| 1788025797 | 35° C | 44% | 1020.4 hPa | 0 mm | - | 643 W/m² | - |
| 1788025497 | 35.56° C | 42% | 1020.5 hPa | 0 mm | - | 706 W/m² | - |
| 1788025192 | 35.56° C | 42% | 1020.6 hPa | 0 mm | - | 742 W/m² | - |
| 1788024887 | 34.44° C | 44% | 1020.6 hPa | 0 mm | - | 706 W/m² | - |
| 1788024583 | 35° C | 44% | 1020.6 hPa | 0 mm | - | 662 W/m² | - |
| 1788024282 | 33.33° C | 48% | 1020.7 hPa | 0 mm | - | 676 W/m² | - |
| 1788023978 | 32.78° C | 48% | 1020.9 hPa | 0 mm | - | 651 W/m² | - |
* Rain latest hour (hover to see other rain measurements)
** Current wind speed in m/s (hover to see current wind gust speed)